sensor_id;sensor_type;location;lat;lon;timestamp;P1;durP1;ratioP1;P2;durP2;ratioP2
14358;SDS011;7263;49.418;11.064;2024-03-25T00:02:18;4.37;;;2.63;;
14358;SDS011;7263;49.418;11.064;2024-03-25T00:04:45;3.60;;;2.97;;
14358;SDS011;7263;49.418;11.064;2024-03-25T00:07:11;4.20;;;2.23;;
14358;SDS011;7263;49.418;11.064;2024-03-25T00:09:38;4.03;;;2.63;;
14358;SDS011;7263;49.418;11.064;2024-03-25T00:12:04;2.70;;;2.40;;
14358;SDS011;7263;49.418;11.064;2024-03-25T00:14:35;4.07;;;2.47;;
14358;SDS011;7263;49.418;11.064;2024-03-25T00:17:02;3.87;;;2.53;;
14358;SDS011;7263;49.418;11.064;2024-03-25T00:19:29;3.17;;;2.43;;
14358;SDS011;7263;49.418;11.064;2024-03-25T00:22:02;3.37;;;2.40;;
14358;SDS011;7263;49.418;11.064;2024-03-25T00:24:29;4.00;;;2.47;;
14358;SDS011;7263;49.418;11.064;2024-03-25T00:26:56;5.93;;;2.67;;
14358;SDS011;7263;49.418;11.064;2024-03-25T00:29:22;3.93;;;2.60;;
14358;SDS011;7263;49.418;11.064;2024-03-25T00:31:50;3.17;;;2.80;;
14358;SDS011;7263;49.418;11.064;2024-03-25T00:34:17;4.13;;;2.23;;
14358;SDS011;7263;49.418;11.064;2024-03-25T00:36:43;2.70;;;2.40;;
14358;SDS011;7263;49.418;11.064;2024-03-25T00:39:10;4.17;;;2.80;;
14358;SDS011;7263;49.418;11.064;2024-03-25T00:41:39;3.57;;;2.70;;
14358;SDS011;7263;49.418;11.064;2024-03-25T00:44:06;3.37;;;2.67;;
14358;SDS011;7263;49.418;11.064;2024-03-25T00:46:32;4.00;;;2.87;;
14358;SDS011;7263;49.418;11.064;2024-03-25T00:49:00;5.23;;;2.73;;
14358;SDS011;7263;49.418;11.064;2024-03-25T00:51:26;3.63;;;2.70;;
14358;SDS011;7263;49.418;11.064;2024-03-25T00:53:53;2.93;;;2.70;;
14358;SDS011;7263;49.418;11.064;2024-03-25T00:56:21;3.50;;;2.90;;
14358;SDS011;7263;49.418;11.064;2024-03-25T00:59:00;3.67;;;2.47;;
14358;SDS011;7263;49.418;11.064;2024-03-25T01:01:34;3.87;;;2.77;;
14358;SDS011;7263;49.418;11.064;2024-03-25T01:04:05;4.93;;;2.67;;
14358;SDS011;7263;49.418;11.064;2024-03-25T01:06:31;3.90;;;2.50;;
14358;SDS011;7263;49.418;11.064;2024-03-25T01:08:58;4.27;;;2.87;;
14358;SDS011;7263;49.418;11.064;2024-03-25T01:11:25;5.27;;;2.70;;
14358;SDS011;7263;49.418;11.064;2024-03-25T01:13:51;5.47;;;2.93;;
14358;SDS011;7263;49.418;11.064;2024-03-25T01:16:21;3.80;;;2.60;;
14358;SDS011;7263;49.418;11.064;2024-03-25T01:18:48;3.30;;;2.67;;
14358;SDS011;7263;49.418;11.064;2024-03-25T01:21:18;3.27;;;2.40;;
14358;SDS011;7263;49.418;11.064;2024-03-25T01:23:48;2.90;;;2.60;;
14358;SDS011;7263;49.418;11.064;2024-03-25T01:26:14;3.90;;;2.80;;
14358;SDS011;7263;49.418;11.064;2024-03-25T01:28:44;3.10;;;2.80;;
14358;SDS011;7263;49.418;11.064;2024-03-25T01:31:14;3.53;;;2.73;;
14358;SDS011;7263;49.418;11.064;2024-03-25T01:33:58;3.37;;;2.87;;
14358;SDS011;7263;49.418;11.064;2024-03-25T01:36:26;3.47;;;2.70;;
14358;SDS011;7263;49.418;11.064;2024-03-25T01:38:52;4.20;;;2.60;;
14358;SDS011;7263;49.418;11.064;2024-03-25T01:41:22;3.53;;;2.90;;
14358;SDS011;7263;49.418;11.064;2024-03-25T01:43:54;4.37;;;2.43;;
14358;SDS011;7263;49.418;11.064;2024-03-25T01:46:21;3.50;;;2.77;;
14358;SDS011;7263;49.418;11.064;2024-03-25T01:48:48;3.00;;;2.50;;
14358;SDS011;7263;49.418;11.064;2024-03-25T01:51:18;3.73;;;2.73;;
14358;SDS011;7263;49.418;11.064;2024-03-25T01:53:53;3.73;;;3.07;;
14358;SDS011;7263;49.418;11.064;2024-03-25T01:56:23;3.90;;;2.80;;
14358;SDS011;7263;49.418;11.064;2024-03-25T01:58:51;4.73;;;2.80;;
14358;SDS011;7263;49.418;11.064;2024-03-25T02:01:27;3.53;;;2.53;;
14358;SDS011;7263;49.418;11.064;2024-03-25T02:04:09;4.27;;;2.57;;
14358;SDS011;7263;49.418;11.064;2024-03-25T02:06:41;5.20;;;2.87;;
14358;SDS011;7263;49.418;11.064;2024-03-25T02:09:10;5.50;;;2.90;;
14358;SDS011;7263;49.418;11.064;2024-03-25T02:11:41;3.53;;;2.60;;
14358;SDS011;7263;49.418;11.064;2024-03-25T02:14:13;3.50;;;2.70;;
14358;SDS011;7263;49.418;11.064;2024-03-25T02:16:43;3.30;;;3.00;;
14358;SDS011;7263;49.418;11.064;2024-03-25T02:19:12;3.23;;;2.47;;
14358;SDS011;7263;49.418;11.064;2024-03-25T02:21:41;3.70;;;3.07;;
14358;SDS011;7263;49.418;11.064;2024-03-25T02:24:10;3.70;;;2.90;;
14358;SDS011;7263;49.418;11.064;2024-03-25T02:26:45;3.30;;;2.23;;
14358;SDS011;7263;49.418;11.064;2024-03-25T02:29:11;3.20;;;2.40;;
14358;SDS011;7263;49.418;11.064;2024-03-25T02:31:38;3.70;;;2.40;;
14358;SDS011;7263;49.418;11.064;2024-03-25T02:34:13;4.13;;;2.60;;
14358;SDS011;7263;49.418;11.064;2024-03-25T02:36:46;5.23;;;2.77;;
14358;SDS011;7263;49.418;11.064;2024-03-25T02:39:27;2.67;;;2.47;;
14358;SDS011;7263;49.418;11.064;2024-03-25T02:42:01;4.33;;;2.70;;
14358;SDS011;7263;49.418;11.064;2024-03-25T02:44:30;3.43;;;2.67;;
14358;SDS011;7263;49.418;11.064;2024-03-25T02:46:57;4.27;;;2.57;;
14358;SDS011;7263;49.418;11.064;2024-03-25T02:49:24;3.87;;;2.30;;
14358;SDS011;7263;49.418;11.064;2024-03-25T02:52:01;3.80;;;2.50;;
14358;SDS011;7263;49.418;11.064;2024-03-25T02:54:36;4.67;;;2.83;;
14358;SDS011;7263;49.418;11.064;2024-03-25T02:57:07;6.00;;;2.80;;
14358;SDS011;7263;49.418;11.064;2024-03-25T02:59:36;3.17;;;2.87;;
14358;SDS011;7263;49.418;11.064;2024-03-25T03:02:03;4.50;;;2.60;;
14358;SDS011;7263;49.418;11.064;2024-03-25T03:04:29;3.33;;;2.80;;
14358;SDS011;7263;49.418;11.064;2024-03-25T03:07:05;3.83;;;2.83;;
14358;SDS011;7263;49.418;11.064;2024-03-25T03:09:34;5.33;;;3.03;;
14358;SDS011;7263;49.418;11.064;2024-03-25T03:12:01;4.33;;;3.07;;
14358;SDS011;7263;49.418;11.064;2024-03-25T03:14:29;4.43;;;3.07;;
14358;SDS011;7263;49.418;11.064;2024-03-25T03:16:58;5.87;;;3.37;;
14358;SDS011;7263;49.418;11.064;2024-03-25T03:19:29;3.17;;;2.83;;
14358;SDS011;7263;49.418;11.064;2024-03-25T03:22:00;3.13;;;2.83;;
14358;SDS011;7263;49.418;11.064;2024-03-25T03:24:29;4.53;;;3.53;;
14358;SDS011;7263;49.418;11.064;2024-03-25T03:26:56;4.13;;;3.20;;
14358;SDS011;7263;49.418;11.064;2024-03-25T03:29:21;4.97;;;3.13;;
14358;SDS011;7263;49.418;11.064;2024-03-25T03:31:56;4.20;;;3.23;;
14358;SDS011;7263;49.418;11.064;2024-03-25T03:34:30;4.20;;;3.30;;
14358;SDS011;7263;49.418;11.064;2024-03-25T03:37:06;5.17;;;3.23;;
14358;SDS011;7263;49.418;11.064;2024-03-25T03:39:32;6.23;;;3.07;;
14358;SDS011;7263;49.418;11.064;2024-03-25T03:41:59;3.80;;;2.90;;
14358;SDS011;7263;49.418;11.064;2024-03-25T03:44:27;4.50;;;3.20;;
14358;SDS011;7263;49.418;11.064;2024-03-25T03:46:55;4.83;;;4.07;;
14358;SDS011;7263;49.418;11.064;2024-03-25T03:49:35;6.27;;;3.33;;
14358;SDS011;7263;49.418;11.064;2024-03-25T03:52:04;4.37;;;3.53;;
14358;SDS011;7263;49.418;11.064;2024-03-25T03:54:30;6.90;;;3.43;;
14358;SDS011;7263;49.418;11.064;2024-03-25T03:57:00;3.83;;;3.30;;
14358;SDS011;7263;49.418;11.064;2024-03-25T03:59:26;5.27;;;3.67;;
14358;SDS011;7263;49.418;11.064;2024-03-25T04:01:56;4.10;;;3.40;;
14358;SDS011;7263;49.418;11.064;2024-03-25T04:04:25;5.13;;;4.20;;
14358;SDS011;7263;49.418;11.064;2024-03-25T04:07:00;5.83;;;3.93;;
14358;SDS011;7263;49.418;11.064;2024-03-25T04:09:26;5.50;;;3.63;;
14358;SDS011;7263;49.418;11.064;2024-03-25T04:11:54;4.67;;;3.77;;
14358;SDS011;7263;49.418;11.064;2024-03-25T04:14:20;4.67;;;3.40;;
14358;SDS011;7263;49.418;11.064;2024-03-25T04:16:47;6.03;;;3.63;;
14358;SDS011;7263;49.418;11.064;2024-03-25T04:19:23;6.00;;;3.57;;
14358;SDS011;7263;49.418;11.064;2024-03-25T04:21:52;4.50;;;3.87;;
14358;SDS011;7263;49.418;11.064;2024-03-25T04:24:30;9.70;;;8.30;;
14358;SDS011;7263;49.418;11.064;2024-03-25T04:26:56;8.33;;;5.93;;
14358;SDS011;7263;49.418;11.064;2024-03-25T04:29:28;8.53;;;5.93;;
14358;SDS011;7263;49.418;11.064;2024-03-25T04:31:58;9.97;;;6.67;;
14358;SDS011;7263;49.418;11.064;2024-03-25T04:34:24;5.27;;;4.20;;
14358;SDS011;7263;49.418;11.064;2024-03-25T04:36:55;6.00;;;5.00;;
14358;SDS011;7263;49.418;11.064;2024-03-25T04:39:21;10.53;;;8.23;;
14358;SDS011;7263;49.418;11.064;2024-03-25T04:41:48;6.20;;;4.80;;
14358;SDS011;7263;49.418;11.064;2024-03-25T04:44:15;6.97;;;5.90;;
14358;SDS011;7263;49.418;11.064;2024-03-25T04:46:47;6.53;;;4.47;;
14358;SDS011;7263;49.418;11.064;2024-03-25T04:49:13;5.77;;;4.43;;
14358;SDS011;7263;49.418;11.064;2024-03-25T04:51:39;6.50;;;4.67;;
14358;SDS011;7263;49.418;11.064;2024-03-25T04:54:11;6.60;;;5.20;;
14358;SDS011;7263;49.418;11.064;2024-03-25T04:56:37;6.10;;;4.03;;
14358;SDS011;7263;49.418;11.064;2024-03-25T04:59:05;5.70;;;4.27;;
14358;SDS011;7263;49.418;11.064;2024-03-25T05:01:31;5.37;;;4.87;;
14358;SDS011;7263;49.418;11.064;2024-03-25T05:04:00;5.60;;;4.77;;
14358;SDS011;7263;49.418;11.064;2024-03-25T05:06:27;8.73;;;5.63;;
14358;SDS011;7263;49.418;11.064;2024-03-25T05:08:53;16.37;;;11.50;;
14358;SDS011;7263;49.418;11.064;2024-03-25T05:11:18;10.03;;;7.33;;
14358;SDS011;7263;49.418;11.064;2024-03-25T05:13:49;6.63;;;4.50;;
14358;SDS011;7263;49.418;11.064;2024-03-25T05:16:20;18.57;;;12.97;;
14358;SDS011;7263;49.418;11.064;2024-03-25T05:18:49;14.90;;;11.30;;
14358;SDS011;7263;49.418;11.064;2024-03-25T05:21:18;6.87;;;4.43;;
14358;SDS011;7263;49.418;11.064;2024-03-25T05:23:44;7.63;;;5.83;;
14358;SDS011;7263;49.418;11.064;2024-03-25T05:26:10;5.17;;;4.40;;
14358;SDS011;7263;49.418;11.064;2024-03-25T05:28:39;5.57;;;5.03;;
14358;SDS011;7263;49.418;11.064;2024-03-25T05:31:06;6.43;;;4.67;;
14358;SDS011;7263;49.418;11.064;2024-03-25T05:33:33;8.13;;;4.47;;
14358;SDS011;7263;49.418;11.064;2024-03-25T05:35:59;9.83;;;5.70;;
14358;SDS011;7263;49.418;11.064;2024-03-25T05:38:25;6.33;;;4.80;;
14358;SDS011;7263;49.418;11.064;2024-03-25T05:40:57;6.60;;;4.50;;
14358;SDS011;7263;49.418;11.064;2024-03-25T05:43:23;7.27;;;4.80;;
14358;SDS011;7263;49.418;11.064;2024-03-25T05:45:52;5.80;;;4.10;;
14358;SDS011;7263;49.418;11.064;2024-03-25T05:48:22;5.20;;;4.20;;
14358;SDS011;7263;49.418;11.064;2024-03-25T05:50:57;5.63;;;4.57;;
14358;SDS011;7263;49.418;11.064;2024-03-25T05:53:27;5.00;;;4.50;;
14358;SDS011;7263;49.418;11.064;2024-03-25T05:55:53;5.20;;;4.70;;
14358;SDS011;7263;49.418;11.064;2024-03-25T05:58:19;5.73;;;4.37;;
14358;SDS011;7263;49.418;11.064;2024-03-25T06:00:52;6.13;;;4.37;;
14358;SDS011;7263;49.418;11.064;2024-03-25T06:03:18;5.87;;;4.97;;
14358;SDS011;7263;49.418;11.064;2024-03-25T06:05:47;5.63;;;4.40;;
14358;SDS011;7263;49.418;11.064;2024-03-25T06:08:17;4.73;;;3.87;;
14358;SDS011;7263;49.418;11.064;2024-03-25T06:10:52;4.90;;;3.90;;
14358;SDS011;7263;49.418;11.064;2024-03-25T06:13:19;5.43;;;4.23;;
14358;SDS011;7263;49.418;11.064;2024-03-25T06:15:45;5.17;;;3.73;;
14358;SDS011;7263;49.418;11.064;2024-03-25T06:18:11;5.63;;;3.63;;
14358;SDS011;7263;49.418;11.064;2024-03-25T06:20:37;5.93;;;3.87;;
14358;SDS011;7263;49.418;11.064;2024-03-25T06:23:07;6.77;;;3.70;;
14358;SDS011;7263;49.418;11.064;2024-03-25T06:25:34;4.90;;;3.13;;
14358;SDS011;7263;49.418;11.064;2024-03-25T06:28:06;6.20;;;3.80;;
14358;SDS011;7263;49.418;11.064;2024-03-25T06:30:32;8.43;;;4.13;;
14358;SDS011;7263;49.418;11.064;2024-03-25T06:33:16;5.10;;;3.57;;
14358;SDS011;7263;49.418;11.064;2024-03-25T06:36:01;4.20;;;3.10;;
14358;SDS011;7263;49.418;11.064;2024-03-25T06:38:27;5.83;;;3.23;;
14358;SDS011;7263;49.418;11.064;2024-03-25T06:40:55;6.17;;;2.87;;
14358;SDS011;7263;49.418;11.064;2024-03-25T06:43:23;3.80;;;2.40;;
14358;SDS011;7263;49.418;11.064;2024-03-25T06:45:49;8.50;;;2.77;;
14358;SDS011;7263;49.418;11.064;2024-03-25T06:48:16;3.67;;;2.60;;
14358;SDS011;7263;49.418;11.064;2024-03-25T06:50:51;4.80;;;2.80;;
14358;SDS011;7263;49.418;11.064;2024-03-25T06:53:21;5.07;;;2.20;;
14358;SDS011;7263;49.418;11.064;2024-03-25T06:55:58;3.50;;;2.20;;
14358;SDS011;7263;49.418;11.064;2024-03-25T06:58:25;1.90;;;1.80;;
14358;SDS011;7263;49.418;11.064;2024-03-25T07:00:55;5.73;;;2.50;;
14358;SDS011;7263;49.418;11.064;2024-03-25T07:03:42;5.53;;;2.40;;
14358;SDS011;7263;49.418;11.064;2024-03-25T07:06:11;3.93;;;2.30;;
14358;SDS011;7263;49.418;11.064;2024-03-25T07:08:39;5.23;;;2.20;;
14358;SDS011;7263;49.418;11.064;2024-03-25T07:11:06;3.37;;;2.10;;
14358;SDS011;7263;49.418;11.064;2024-03-25T07:13:36;3.50;;;2.20;;
14358;SDS011;7263;49.418;11.064;2024-03-25T07:16:01;6.00;;;2.17;;
14358;SDS011;7263;49.418;11.064;2024-03-25T07:18:28;4.77;;;2.10;;
14358;SDS011;7263;49.418;11.064;2024-03-25T07:20:54;3.17;;;2.47;;
14358;SDS011;7263;49.418;11.064;2024-03-25T07:23:20;4.47;;;2.53;;
14358;SDS011;7263;49.418;11.064;2024-03-25T07:25:46;3.63;;;2.00;;
14358;SDS011;7263;49.418;11.064;2024-03-25T07:28:13;3.87;;;2.20;;
14358;SDS011;7263;49.418;11.064;2024-03-25T07:30:39;3.20;;;2.03;;
14358;SDS011;7263;49.418;11.064;2024-03-25T07:33:05;2.33;;;2.10;;
14358;SDS011;7263;49.418;11.064;2024-03-25T07:38:38;3.50;;;1.97;;
14358;SDS011;7263;49.418;11.064;2024-03-25T07:41:10;2.57;;;1.80;;
14358;SDS011;7263;49.418;11.064;2024-03-25T07:43:37;3.70;;;2.10;;
14358;SDS011;7263;49.418;11.064;2024-03-25T07:46:05;3.50;;;2.17;;
14358;SDS011;7263;49.418;11.064;2024-03-25T07:48:33;3.10;;;1.83;;
14358;SDS011;7263;49.418;11.064;2024-03-25T07:51:02;3.00;;;1.83;;
14358;SDS011;7263;49.418;11.064;2024-03-25T07:53:32;2.63;;;1.70;;
14358;SDS011;7263;49.418;11.064;2024-03-25T07:55:57;2.70;;;1.63;;
14358;SDS011;7263;49.418;11.064;2024-03-25T07:58:24;2.80;;;2.10;;
14358;SDS011;7263;49.418;11.064;2024-03-25T08:00:51;2.80;;;1.60;;
14358;SDS011;7263;49.418;11.064;2024-03-25T08:03:17;2.10;;;1.37;;
14358;SDS011;7263;49.418;11.064;2024-03-25T08:05:43;3.30;;;1.53;;
14358;SDS011;7263;49.418;11.064;2024-03-25T08:08:12;2.53;;;1.40;;
14358;SDS011;7263;49.418;11.064;2024-03-25T08:10:37;3.80;;;1.67;;
14358;SDS011;7263;49.418;11.064;2024-03-25T08:13:03;5.40;;;2.07;;
14358;SDS011;7263;49.418;11.064;2024-03-25T08:15:32;1.90;;;1.23;;
14358;SDS011;7263;49.418;11.064;2024-03-25T08:18:00;2.33;;;1.20;;
14358;SDS011;7263;49.418;11.064;2024-03-25T08:20:28;3.03;;;1.60;;
14358;SDS011;7263;49.418;11.064;2024-03-25T08:22:54;2.80;;;1.70;;
14358;SDS011;7263;49.418;11.064;2024-03-25T08:25:20;2.80;;;1.43;;
14358;SDS011;7263;49.418;11.064;2024-03-25T08:27:47;4.70;;;1.80;;
14358;SDS011;7263;49.418;11.064;2024-03-25T08:30:13;2.90;;;1.60;;
14358;SDS011;7263;49.418;11.064;2024-03-25T08:32:39;3.23;;;1.50;;
14358;SDS011;7263;49.418;11.064;2024-03-25T08:35:12;3.13;;;1.40;;
14358;SDS011;7263;49.418;11.064;2024-03-25T08:37:38;1.33;;;1.23;;
14358;SDS011;7263;49.418;11.064;2024-03-25T08:40:04;2.00;;;1.70;;
14358;SDS011;7263;49.418;11.064;2024-03-25T08:42:34;2.27;;;1.60;;
14358;SDS011;7263;49.418;11.064;2024-03-25T08:45:00;3.73;;;1.60;;
14358;SDS011;7263;49.418;11.064;2024-03-25T08:47:32;3.00;;;1.70;;
14358;SDS011;7263;49.418;11.064;2024-03-25T08:49:58;2.80;;;1.60;;
14358;SDS011;7263;49.418;11.064;2024-03-25T08:52:25;3.20;;;1.67;;
14358;SDS011;7263;49.418;11.064;2024-03-25T08:54:57;1.57;;;1.30;;
14358;SDS011;7263;49.418;11.064;2024-03-25T08:57:29;3.30;;;2.10;;
14358;SDS011;7263;49.418;11.064;2024-03-25T08:59:57;3.20;;;1.90;;
14358;SDS011;7263;49.418;11.064;2024-03-25T09:02:26;2.10;;;1.40;;
14358;SDS011;7263;49.418;11.064;2024-03-25T09:04:52;2.67;;;1.60;;
14358;SDS011;7263;49.418;11.064;2024-03-25T09:07:21;1.73;;;1.40;;
14358;SDS011;7263;49.418;11.064;2024-03-25T09:09:54;2.00;;;1.37;;
14358;SDS011;7263;49.418;11.064;2024-03-25T09:12:41;3.67;;;1.50;;
14358;SDS011;7263;49.418;11.064;2024-03-25T09:15:07;3.30;;;1.60;;
14358;SDS011;7263;49.418;11.064;2024-03-25T09:17:37;2.20;;;1.23;;
14358;SDS011;7263;49.418;11.064;2024-03-25T09:20:03;1.97;;;1.40;;
14358;SDS011;7263;49.418;11.064;2024-03-25T09:22:31;3.77;;;1.50;;
14358;SDS011;7263;49.418;11.064;2024-03-25T09:25:00;3.03;;;1.57;;
14358;SDS011;7263;49.418;11.064;2024-03-25T09:27:29;4.93;;;1.70;;
14358;SDS011;7263;49.418;11.064;2024-03-25T09:29:56;3.73;;;1.50;;
14358;SDS011;7263;49.418;11.064;2024-03-25T09:32:22;2.53;;;1.47;;
14358;SDS011;7263;49.418;11.064;2024-03-25T09:34:55;3.07;;;1.40;;
14358;SDS011;7263;49.418;11.064;2024-03-25T09:37:24;1.87;;;1.40;;
14358;SDS011;7263;49.418;11.064;2024-03-25T09:39:54;2.37;;;1.43;;
14358;SDS011;7263;49.418;11.064;2024-03-25T09:42:24;2.93;;;1.57;;
14358;SDS011;7263;49.418;11.064;2024-03-25T09:44:54;2.53;;;1.40;;
14358;SDS011;7263;49.418;11.064;2024-03-25T09:47:21;2.87;;;1.50;;
14358;SDS011;7263;49.418;11.064;2024-03-25T09:49:47;2.37;;;1.53;;
14358;SDS011;7263;49.418;11.064;2024-03-25T09:52:13;1.67;;;1.20;;
14358;SDS011;7263;49.418;11.064;2024-03-25T09:54:44;3.80;;;1.43;;
14358;SDS011;7263;49.418;11.064;2024-03-25T09:57:12;3.13;;;1.50;;
14358;SDS011;7263;49.418;11.064;2024-03-25T09:59:39;1.63;;;1.30;;
14358;SDS011;7263;49.418;11.064;2024-03-25T10:02:05;3.83;;;1.77;;
14358;SDS011;7263;49.418;11.064;2024-03-25T10:04:35;3.63;;;1.50;;
14358;SDS011;7263;49.418;11.064;2024-03-25T10:07:06;3.10;;;1.60;;
14358;SDS011;7263;49.418;11.064;2024-03-25T10:09:32;2.03;;;1.23;;
14358;SDS011;7263;49.418;11.064;2024-03-25T10:11:58;3.77;;;2.10;;
14358;SDS011;7263;49.418;11.064;2024-03-25T10:14:26;4.70;;;1.90;;
14358;SDS011;7263;49.418;11.064;2024-03-25T10:16:52;2.23;;;1.53;;
14358;SDS011;7263;49.418;11.064;2024-03-25T10:19:18;2.03;;;1.50;;
14358;SDS011;7263;49.418;11.064;2024-03-25T10:21:45;2.73;;;1.40;;
14358;SDS011;7263;49.418;11.064;2024-03-25T10:24:11;2.07;;;1.50;;
14358;SDS011;7263;49.418;11.064;2024-03-25T10:26:42;2.23;;;1.40;;
14358;SDS011;7263;49.418;11.064;2024-03-25T10:29:08;2.67;;;1.60;;
14358;SDS011;7263;49.418;11.064;2024-03-25T10:31:36;2.00;;;1.60;;
14358;SDS011;7263;49.418;11.064;2024-03-25T10:34:02;2.90;;;1.50;;
14358;SDS011;7263;49.418;11.064;2024-03-25T10:36:28;2.03;;;1.23;;
14358;SDS011;7263;49.418;11.064;2024-03-25T10:38:56;2.67;;;1.50;;
14358;SDS011;7263;49.418;11.064;2024-03-25T10:41:27;2.83;;;1.33;;
14358;SDS011;7263;49.418;11.064;2024-03-25T10:43:56;2.00;;;1.20;;
14358;SDS011;7263;49.418;11.064;2024-03-25T10:46:25;3.50;;;1.33;;
14358;SDS011;7263;49.418;11.064;2024-03-25T10:48:53;2.37;;;1.60;;
14358;SDS011;7263;49.418;11.064;2024-03-25T10:51:23;1.67;;;1.20;;
14358;SDS011;7263;49.418;11.064;2024-03-25T10:53:51;2.90;;;1.50;;
14358;SDS011;7263;49.418;11.064;2024-03-25T10:56:19;1.23;;;1.13;;
14358;SDS011;7263;49.418;11.064;2024-03-25T10:58:49;1.20;;;1.10;;
14358;SDS011;7263;49.418;11.064;2024-03-25T11:01:16;1.20;;;1.10;;
14358;SDS011;7263;49.418;11.064;2024-03-25T11:03:43;2.33;;;1.53;;
14358;SDS011;7263;49.418;11.064;2024-03-25T11:06:12;2.08;;;1.10;;
14358;SDS011;7263;49.418;11.064;2024-03-25T11:08:38;2.42;;;1.30;;
14358;SDS011;7263;49.418;11.064;2024-03-25T11:11:07;1.95;;;1.00;;
14358;SDS011;7263;49.418;11.064;2024-03-25T11:13:33;2.28;;;1.38;;
14358;SDS011;7263;49.418;11.064;2024-03-25T11:15:59;1.95;;;1.30;;
14358;SDS011;7263;49.418;11.064;2024-03-25T11:18:25;2.50;;;1.42;;
14358;SDS011;7263;49.418;11.064;2024-03-25T11:20:59;2.53;;;1.35;;
14358;SDS011;7263;49.418;11.064;2024-03-25T11:23:34;1.67;;;1.30;;
14358;SDS011;7263;49.418;11.064;2024-03-25T11:26:04;2.22;;;1.60;;
14358;SDS011;7263;49.418;11.064;2024-03-25T11:28:36;1.33;;;1.08;;
14358;SDS011;7263;49.418;11.064;2024-03-25T11:31:02;2.08;;;1.27;;
14358;SDS011;7263;49.418;11.064;2024-03-25T11:33:31;2.55;;;1.45;;
14358;SDS011;7263;49.418;11.064;2024-03-25T11:35:57;3.20;;;1.40;;
14358;SDS011;7263;49.418;11.064;2024-03-25T11:38:23;2.25;;;1.27;;
14358;SDS011;7263;49.418;11.064;2024-03-25T11:40:53;3.03;;;1.23;;
14358;SDS011;7263;49.418;11.064;2024-03-25T11:43:21;3.40;;;1.50;;
14358;SDS011;7263;49.418;11.064;2024-03-25T11:45:48;1.77;;;1.30;;
14358;SDS011;7263;49.418;11.064;2024-03-25T11:48:14;1.42;;;1.20;;
14358;SDS011;7263;49.418;11.064;2024-03-25T11:50:41;1.55;;;1.23;;
14358;SDS011;7263;49.418;11.064;2024-03-25T11:53:07;1.63;;;1.38;;
14358;SDS011;7263;49.418;11.064;2024-03-25T11:55:40;1.33;;;1.23;;
14358;SDS011;7263;49.418;11.064;2024-03-25T11:58:10;1.70;;;1.30;;
14358;SDS011;7263;49.418;11.064;2024-03-25T12:00:42;1.77;;;1.45;;
14358;SDS011;7263;49.418;11.064;2024-03-25T12:03:12;1.90;;;1.40;;
14358;SDS011;7263;49.418;11.064;2024-03-25T12:05:39;4.30;;;1.65;;
14358;SDS011;7263;49.418;11.064;2024-03-25T12:08:07;1.95;;;1.45;;
14358;SDS011;7263;49.418;11.064;2024-03-25T12:10:34;2.70;;;1.55;;
14358;SDS011;7263;49.418;11.064;2024-03-25T12:13:20;4.65;;;1.70;;
14358;SDS011;7263;49.418;11.064;2024-03-25T12:15:46;1.77;;;1.45;;
14358;SDS011;7263;49.418;11.064;2024-03-25T12:18:13;18.02;;;16.08;;
14358;SDS011;7263;49.418;11.064;2024-03-25T12:20:39;3.03;;;1.58;;
14358;SDS011;7263;49.418;11.064;2024-03-25T12:23:05;1.58;;;1.30;;
14358;SDS011;7263;49.418;11.064;2024-03-25T12:25:32;2.35;;;1.40;;
14358;SDS011;7263;49.418;11.064;2024-03-25T12:27:58;2.90;;;1.27;;
14358;SDS011;7263;49.418;11.064;2024-03-25T12:30:28;1.90;;;1.43;;
14358;SDS011;7263;49.418;11.064;2024-03-25T12:32:54;3.00;;;2.10;;
14358;SDS011;7263;49.418;11.064;2024-03-25T12:35:21;2.17;;;1.60;;
14358;SDS011;7263;49.418;11.064;2024-03-25T12:37:47;2.50;;;1.80;;
14358;SDS011;7263;49.418;11.064;2024-03-25T12:40:24;2.20;;;1.50;;
14358;SDS011;7263;49.418;11.064;2024-03-25T12:42:59;1.83;;;1.23;;
14358;SDS011;7263;49.418;11.064;2024-03-25T12:45:29;2.03;;;1.43;;
14358;SDS011;7263;49.418;11.064;2024-03-25T12:47:56;1.47;;;1.30;;
14358;SDS011;7263;49.418;11.064;2024-03-25T12:50:29;2.07;;;1.47;;
14358;SDS011;7263;49.418;11.064;2024-03-25T12:53:02;1.40;;;1.30;;
14358;SDS011;7263;49.418;11.064;2024-03-25T12:55:28;1.77;;;1.30;;
14358;SDS011;7263;49.418;11.064;2024-03-25T12:57:54;2.23;;;1.57;;
14358;SDS011;7263;49.418;11.064;2024-03-25T13:00:30;1.83;;;1.63;;
14358;SDS011;7263;49.418;11.064;2024-03-25T13:02:57;2.03;;;1.60;;
14358;SDS011;7263;49.418;11.064;2024-03-25T13:05:22;4.97;;;1.63;;
14358;SDS011;7263;49.418;11.064;2024-03-25T13:07:48;2.27;;;1.40;;
14358;SDS011;7263;49.418;11.064;2024-03-25T13:10:14;2.00;;;1.40;;
14358;SDS011;7263;49.418;11.064;2024-03-25T13:12:43;2.43;;;1.43;;
14358;SDS011;7263;49.418;11.064;2024-03-25T13:15:09;2.87;;;1.20;;
14358;SDS011;7263;49.418;11.064;2024-03-25T13:17:40;2.17;;;1.30;;
14358;SDS011;7263;49.418;11.064;2024-03-25T13:20:09;3.27;;;1.80;;
14358;SDS011;7263;49.418;11.064;2024-03-25T13:22:35;2.53;;;1.53;;
14358;SDS011;7263;49.418;11.064;2024-03-25T13:25:04;3.10;;;1.50;;
14358;SDS011;7263;49.418;11.064;2024-03-25T13:27:30;1.70;;;1.53;;
14358;SDS011;7263;49.418;11.064;2024-03-25T13:29:59;1.97;;;1.33;;
14358;SDS011;7263;49.418;11.064;2024-03-25T13:32:25;1.37;;;1.27;;
14358;SDS011;7263;49.418;11.064;2024-03-25T13:34:55;2.20;;;1.30;;
14358;SDS011;7263;49.418;11.064;2024-03-25T13:37:21;2.03;;;1.60;;
14358;SDS011;7263;49.418;11.064;2024-03-25T13:39:47;1.93;;;1.70;;
14358;SDS011;7263;49.418;11.064;2024-03-25T13:42:13;1.33;;;1.20;;
14358;SDS011;7263;49.418;11.064;2024-03-25T13:44:39;1.80;;;1.20;;
14358;SDS011;7263;49.418;11.064;2024-03-25T13:47:05;2.13;;;1.60;;
14358;SDS011;7263;49.418;11.064;2024-03-25T13:49:34;2.33;;;1.77;;
14358;SDS011;7263;49.418;11.064;2024-03-25T13:52:02;1.70;;;1.60;;
14358;SDS011;7263;49.418;11.064;2024-03-25T13:54:36;3.43;;;1.50;;
14358;SDS011;7263;49.418;11.064;2024-03-25T13:57:03;1.40;;;1.20;;
14358;SDS011;7263;49.418;11.064;2024-03-25T13:59:29;1.57;;;1.10;;
14358;SDS011;7263;49.418;11.064;2024-03-25T14:01:55;1.57;;;1.37;;
14358;SDS011;7263;49.418;11.064;2024-03-25T14:04:23;1.80;;;1.47;;
14358;SDS011;7263;49.418;11.064;2024-03-25T14:06:49;2.17;;;1.73;;
14358;SDS011;7263;49.418;11.064;2024-03-25T14:09:26;2.00;;;1.33;;
14358;SDS011;7263;49.418;11.064;2024-03-25T14:11:52;2.57;;;1.20;;
14358;SDS011;7263;49.418;11.064;2024-03-25T14:14:18;1.53;;;1.37;;
14358;SDS011;7263;49.418;11.064;2024-03-25T14:16:48;4.00;;;1.53;;
14358;SDS011;7263;49.418;11.064;2024-03-25T14:19:23;26.90;;;3.77;;
14358;SDS011;7263;49.418;11.064;2024-03-25T14:21:52;2.10;;;1.50;;
14358;SDS011;7263;49.418;11.064;2024-03-25T14:24:18;4.93;;;1.87;;
14358;SDS011;7263;49.418;11.064;2024-03-25T14:26:45;1.70;;;1.60;;
14358;SDS011;7263;49.418;11.064;2024-03-25T14:29:13;12.00;;;3.43;;
14358;SDS011;7263;49.418;11.064;2024-03-25T14:31:45;1.27;;;1.13;;
14358;SDS011;7263;49.418;11.064;2024-03-25T14:34:12;1.60;;;1.30;;
14358;SDS011;7263;49.418;11.064;2024-03-25T14:36:44;2.23;;;1.30;;
14358;SDS011;7263;49.418;11.064;2024-03-25T14:39:13;2.10;;;1.30;;
14358;SDS011;7263;49.418;11.064;2024-03-25T14:41:46;2.00;;;1.53;;
14358;SDS011;7263;49.418;11.064;2024-03-25T14:44:12;1.83;;;1.30;;
14358;SDS011;7263;49.418;11.064;2024-03-25T14:46:38;1.23;;;1.10;;
14358;SDS011;7263;49.418;11.064;2024-03-25T14:49:04;3.57;;;1.50;;
14358;SDS011;7263;49.418;11.064;2024-03-25T14:51:30;2.40;;;1.37;;
14358;SDS011;7263;49.418;11.064;2024-03-25T14:53:56;1.83;;;1.27;;
14358;SDS011;7263;49.418;11.064;2024-03-25T14:56:25;1.90;;;1.10;;
14358;SDS011;7263;49.418;11.064;2024-03-25T14:58:53;2.13;;;1.20;;
14358;SDS011;7263;49.418;11.064;2024-03-25T15:01:21;2.17;;;1.40;;